createdAt,value
2017-09-27T00:00:51.210Z,96.94
2017-09-27T00:01:51.187Z,97.22
2017-09-27T00:02:51.177Z,97.13
2017-09-27T00:03:51.146Z,97.22
2017-09-27T00:04:51.117Z,97.13
2017-09-27T00:05:51.099Z,96.84
2017-09-27T00:06:51.079Z,96.84
2017-09-27T00:07:50.743Z,96.84
2017-09-27T00:08:51.083Z,96.94
2017-09-27T00:09:51.008Z,97.03
2017-09-27T00:10:50.997Z,96.94
2017-09-27T00:11:50.968Z,97.13
2017-09-27T00:12:50.945Z,97.03
2017-09-27T00:13:50.918Z,97.13
2017-09-27T00:14:50.902Z,97.22
2017-09-27T00:15:50.871Z,97.32
2017-09-27T00:16:50.846Z,97.56
2017-09-27T00:17:50.837Z,96.94
2017-09-27T00:18:50.814Z,96.84
2017-09-27T00:19:50.785Z,97.61
2017-09-27T00:20:50.453Z,97.03
2017-09-27T00:21:50.738Z,97.22
2017-09-27T00:22:50.717Z,97.42
2017-09-27T00:23:50.698Z,97.42
2017-09-27T00:24:50.363Z,97.42
2017-09-27T00:25:50.651Z,97.22
2017-09-27T00:26:50.623Z,97.13
2017-09-27T00:27:50.600Z,97.22
2017-09-27T00:28:50.580Z,97.22
2017-09-27T00:29:50.554Z,97.42
2017-09-27T00:30:50.531Z,97.8
2017-09-27T00:31:50.512Z,97.61
2017-09-27T00:32:50.488Z,97.22
2017-09-27T00:33:50.486Z,97.8
2017-09-27T00:34:50.442Z,97.61
2017-09-27T00:35:50.464Z,97.61
2017-09-27T00:36:50.400Z,97.42
2017-09-27T00:37:50.382Z,97.61
2017-09-27T00:38:50.359Z,97.8
2017-09-27T00:39:50.338Z,97.42
2017-09-27T00:40:50.314Z,97.22
2017-09-27T00:41:50.286Z,97.13
2017-09-27T00:42:50.265Z,97.42
2017-09-27T00:43:50.241Z,97.42
2017-09-27T00:44:50.218Z,97.42
2017-09-27T00:45:50.194Z,97.42
2017-09-27T00:46:50.176Z,97.51
2017-09-27T00:47:50.150Z,97.51
2017-09-27T00:48:50.131Z,97.61
2017-09-27T00:49:50.112Z,97.51
2017-09-27T00:50:50.136Z,97.42
2017-09-27T00:51:50.064Z,97.51
2017-09-27T00:52:50.043Z,97.42
2017-09-27T00:53:50.019Z,97.51
2017-09-27T00:54:49.997Z,97.51
2017-09-27T00:55:49.971Z,97.61
2017-09-27T00:56:49.951Z,97.32
2017-09-27T00:57:49.926Z,97.32
2017-09-27T00:58:49.904Z,97.32
2017-09-27T00:59:49.884Z,97.56
2017-09-27T01:00:49.857Z,97.56
2017-09-27T01:01:49.841Z,97.56
2017-09-27T01:02:49.816Z,97.51
2017-09-27T01:03:49.789Z,97.47
2017-09-27T01:04:49.465Z,97.47
2017-09-27T01:05:49.752Z,97.47
2017-09-27T01:06:49.725Z,97.47
2017-09-27T01:07:49.705Z,97.47
2017-09-27T01:08:49.681Z,97.66
2017-09-27T01:09:49.658Z,97.47
2017-09-27T01:10:49.641Z,97.56
2017-09-27T01:11:49.612Z,97.37
2017-09-27T01:12:49.588Z,97.51
2017-09-27T01:13:49.570Z,97.56
2017-09-27T01:14:49.547Z,97.56
2017-09-27T01:15:49.526Z,97.37
2017-09-27T01:16:49.497Z,97.51
2017-09-27T01:17:49.480Z,97.51
2017-09-27T01:18:49.455Z,97.42
2017-09-27T01:19:49.445Z,97.51
2017-09-27T01:20:49.414Z,97.42
2017-09-27T01:21:49.383Z,97.47
2017-09-27T01:22:49.368Z,97.56
2017-09-27T01:23:49.350Z,97.56
2017-09-27T01:24:49.321Z,97.61
2017-09-27T01:25:49.298Z,97.51
2017-09-27T01:26:49.277Z,97.42
2017-09-27T01:27:49.252Z,97.51
2017-09-27T01:28:49.233Z,97.42
2017-09-27T01:29:49.213Z,97.61
2017-09-27T01:30:49.182Z,97.42
2017-09-27T01:31:49.163Z,97.42
2017-09-27T01:32:49.141Z,97.13
2017-09-27T01:33:49.117Z,97.51
2017-09-27T01:34:49.098Z,97.32
2017-09-27T01:35:48.769Z,97.32
2017-09-27T01:36:49.052Z,97.51
2017-09-27T01:37:49.035Z,97.42
2017-09-27T01:38:49.007Z,97.42
2017-09-27T01:39:48.983Z,97.22
2017-09-27T01:40:48.964Z,97.51
2017-09-27T01:41:48.937Z,97.22
2017-09-27T01:42:48.916Z,98.08
2017-09-27T01:43:48.895Z,98.18
2017-09-27T01:44:48.877Z,98.08
2017-09-27T01:45:48.850Z,98.08
2017-09-27T01:46:48.825Z,98.18
2017-09-27T01:47:48.808Z,97.71
2017-09-27T01:48:48.476Z,97.71
2017-09-27T01:49:48.763Z,97.71
2017-09-27T01:50:48.738Z,97.8
2017-09-27T01:51:48.713Z,97.32
2017-09-27T01:52:48.703Z,97.99
2017-09-27T01:53:48.669Z,97.51
2017-09-27T01:54:48.647Z,97.89
2017-09-27T01:55:48.626Z,97.42
2017-09-27T01:56:48.607Z,97.61
2017-09-27T01:57:48.634Z,97.61
2017-09-27T01:58:48.556Z,97.8
2017-09-27T01:59:48.535Z,97.61
2017-09-27T02:00:48.561Z,97.8
2017-09-27T02:01:48.489Z,97.71
2017-09-27T02:02:48.472Z,97.71
2017-09-27T02:03:48.443Z,97.8
2017-09-27T02:04:48.423Z,97.42
2017-09-27T02:05:48.098Z,97.8
2017-09-27T02:06:48.386Z,98.08
2017-09-27T02:07:48.357Z,97.32
2017-09-27T02:08:48.333Z,97.32
2017-09-27T02:09:48.315Z,98.08
2017-09-27T02:10:48.286Z,98.18
2017-09-27T02:11:48.274Z,98.08
2017-09-27T02:12:48.293Z,97.61
2017-09-27T02:13:48.226Z,97.8
2017-09-27T02:14:48.249Z,97.61
2017-09-27T02:15:47.868Z,97.8
2017-09-27T02:16:48.150Z,98.08
2017-09-27T02:17:47.823Z,97.22
2017-09-27T02:18:48.112Z,97.8
2017-09-27T02:19:48.085Z,97.27
2017-09-27T02:20:48.065Z,98.13
2017-09-27T02:21:48.048Z,97.75
2017-09-27T02:22:48.022Z,97.75
2017-09-27T02:23:47.993Z,97.75
2017-09-27T02:24:47.663Z,97.85
2017-09-27T02:25:47.951Z,97.56
2017-09-27T02:26:47.938Z,98.13
2017-09-27T02:27:47.903Z,98.23
2017-09-27T02:28:47.886Z,97.47
2017-09-27T02:29:47.553Z,97.66
2017-09-27T02:30:47.841Z,97.66
2017-09-27T02:31:47.818Z,97.47
2017-09-27T02:32:47.790Z,97.47
2017-09-27T02:33:47.772Z,97.66
2017-09-27T02:34:47.748Z,97.37
2017-09-27T02:35:47.424Z,98.03
2017-09-27T02:36:47.706Z,97.47
2017-09-27T02:37:47.681Z,97.37
2017-09-27T02:38:47.663Z,97.66
2017-09-27T02:39:47.636Z,97.75
2017-09-27T02:40:47.615Z,97.66
2017-09-27T02:41:47.604Z,97.85
2017-09-27T02:42:47.571Z,97.75
2017-09-27T02:43:47.550Z,98.13
2017-09-27T02:44:47.529Z,98.03
2017-09-27T02:45:47.505Z,98.13
2017-09-27T02:46:47.483Z,98.13
2017-09-27T02:47:47.458Z,98.03
2017-09-27T02:48:47.450Z,97.47
2017-09-27T02:49:47.412Z,97.94
2017-09-27T02:50:47.389Z,97.47
2017-09-27T02:51:47.376Z,97.47
2017-09-27T02:52:47.398Z,97.27
2017-09-27T02:53:47.339Z,97.27
2017-09-27T02:54:47.304Z,97.27
2017-09-27T02:55:47.281Z,97.66
2017-09-27T02:56:47.255Z,97.27
2017-09-27T02:57:47.233Z,97.27
2017-09-27T02:58:47.212Z,97.27
2017-09-27T02:59:46.884Z,97.37
2017-09-27T03:00:47.166Z,97.27
2017-09-27T03:01:47.146Z,97.56
2017-09-27T03:02:47.122Z,97.56
2017-09-27T03:03:47.096Z,97.56
2017-09-27T03:04:47.077Z,96.98
2017-09-27T03:05:47.056Z,97.66
2017-09-27T03:06:47.031Z,97.27
2017-09-27T03:07:47.010Z,97.08
2017-09-27T03:08:46.985Z,97.37
2017-09-27T03:09:46.971Z,97.47
2017-09-27T03:10:46.992Z,97.08
2017-09-27T03:11:46.915Z,97.18
2017-09-27T03:12:46.898Z,97.18
2017-09-27T03:13:46.872Z,97.08
2017-09-27T03:14:46.852Z,96.98
2017-09-27T03:15:46.828Z,96.89
2017-09-27T03:16:46.807Z,96.8
2017-09-27T03:17:46.790Z,96.98
2017-09-27T03:18:46.765Z,97.18
2017-09-27T03:19:46.746Z,96.98
2017-09-27T03:20:46.715Z,97.08
2017-09-27T03:21:46.697Z,96.98
2017-09-27T03:22:46.676Z,96.98
2017-09-27T03:23:46.658Z,96.89
2017-09-27T03:24:46.629Z,96.98
2017-09-27T03:25:46.608Z,96.8
2017-09-27T03:26:46.592Z,97.27
2017-09-27T03:27:46.570Z,97.08
2017-09-27T03:28:46.538Z,97.08
2017-09-27T03:29:46.521Z,97.27
2017-09-27T03:30:46.501Z,96.98
2017-09-27T03:31:46.477Z,96.89
2017-09-27T03:32:46.459Z,97.08
2017-09-27T03:33:46.428Z,96.89
2017-09-27T03:34:46.407Z,96.89
2017-09-27T03:35:46.397Z,96.89
2017-09-27T03:36:46.360Z,96.89
2017-09-27T03:37:46.341Z,97.08
2017-09-27T03:38:46.318Z,97.08
2017-09-27T03:39:46.297Z,96.98
2017-09-27T03:40:46.274Z,96.89
2017-09-27T03:41:46.252Z,97.27
2017-09-27T03:42:46.229Z,96.98
2017-09-27T03:43:46.208Z,96.98
2017-09-27T03:44:46.182Z,96.98
2017-09-27T03:45:45.853Z,96.89
2017-09-27T03:46:46.138Z,97.27
2017-09-27T03:47:46.119Z,97.27
2017-09-27T03:48:46.092Z,97.37
2017-09-27T03:49:46.073Z,97.18
2017-09-27T03:50:46.103Z,97.18
2017-09-27T03:51:46.028Z,97.27
2017-09-27T03:52:46.011Z,97.18
2017-09-27T03:53:45.982Z,97.27
2017-09-27T03:54:45.963Z,97.18
2017-09-27T03:55:45.937Z,97.18
2017-09-27T03:56:45.914Z,97.08
2017-09-27T03:57:45.893Z,97.18
2017-09-27T03:58:45.880Z,97.18
2017-09-27T03:59:45.854Z,97.47
2017-09-27T04:00:45.836Z,97.18
2017-09-27T04:01:45.508Z,97.08
2017-09-27T04:02:45.782Z,97.27
2017-09-27T04:03:45.819Z,97.47
2017-09-27T04:04:45.744Z,97.27
2017-09-27T04:05:45.727Z,97.37
2017-09-27T04:06:45.700Z,97.13
2017-09-27T04:07:45.674Z,97.47
2017-09-27T04:08:45.649Z,97.37
2017-09-27T04:09:45.636Z,97.56
2017-09-27T04:10:45.604Z,97.18
2017-09-27T04:11:45.593Z,97.37
2017-09-27T04:12:45.565Z,97.56
2017-09-27T04:13:45.541Z,97.08
2017-09-27T04:14:45.514Z,97.56
2017-09-27T04:15:45.495Z,97.18
2017-09-27T04:16:45.471Z,97.08
2017-09-27T04:17:45.452Z,96.98
2017-09-27T04:18:45.427Z,97.13
2017-09-27T04:19:45.405Z,97.47
2017-09-27T04:20:45.388Z,97.08
2017-09-27T04:21:45.360Z,97.08
2017-09-27T04:22:45.338Z,97.37
2017-09-27T04:23:45.314Z,97.37
2017-09-27T04:24:45.294Z,97.37
2017-09-27T04:25:45.271Z,97.47
2017-09-27T04:26:45.250Z,97.37
2017-09-27T04:27:45.230Z,97.37
2017-09-27T04:28:45.207Z,97.27
2017-09-27T04:29:45.186Z,97.47
2017-09-27T04:30:45.212Z,97.37
2017-09-27T04:31:45.137Z,97.37
2017-09-27T04:32:45.116Z,97.56
2017-09-27T04:33:45.091Z,97.08
2017-09-27T04:34:45.068Z,97.47
2017-09-27T04:35:45.046Z,97.18
2017-09-27T04:36:45.041Z,97.47
2017-09-27T04:37:45.004Z,97.47
2017-09-27T04:38:44.983Z,97.27
2017-09-27T04:39:44.959Z,97.27
2017-09-27T04:40:44.990Z,97.18
2017-09-27T04:41:44.913Z,97.18
2017-09-27T04:42:44.890Z,97.27
2017-09-27T04:43:44.865Z,97.18
2017-09-27T04:44:44.845Z,97.27
2017-09-27T04:45:44.822Z,97.18
2017-09-27T04:46:44.801Z,97.27
2017-09-27T04:47:44.779Z,97.18
2017-09-27T04:48:44.756Z,97.27
2017-09-27T04:49:44.798Z,97.27
2017-09-27T04:50:44.714Z,97.37
2017-09-27T04:51:44.697Z,96.89
2017-09-27T04:52:44.668Z,96.89
2017-09-27T04:53:44.646Z,97.37
2017-09-27T04:54:44.625Z,97.18
2017-09-27T04:55:44.598Z,97.27
2017-09-27T04:56:44.587Z,96.89
2017-09-27T04:57:44.562Z,97.08
2017-09-27T04:58:44.532Z,97.27
2017-09-27T04:59:44.513Z,97.08
2017-09-27T05:00:44.491Z,97.08
2017-09-27T05:01:44.466Z,97.08
2017-09-27T05:02:44.458Z,97.18
2017-09-27T05:03:44.423Z,97.27
2017-09-27T05:04:44.405Z,97.08
2017-09-27T05:05:44.376Z,97.18
2017-09-27T05:06:44.352Z,97.08
2017-09-27T05:07:44.333Z,97.27
2017-09-27T05:08:44.308Z,96.89
2017-09-27T05:09:43.986Z,96.89
2017-09-27T05:10:44.267Z,96.98
2017-09-27T05:11:44.248Z,96.8
2017-09-27T05:12:44.221Z,97.27
2017-09-27T05:13:44.202Z,96.89
2017-09-27T05:14:44.177Z,96.98
2017-09-27T05:15:44.157Z,96.98
2017-09-27T05:16:44.127Z,96.89
2017-09-27T05:17:44.115Z,96.98
2017-09-27T05:18:44.088Z,96.98
2017-09-27T05:19:44.067Z,97.08
2017-09-27T05:20:44.040Z,97.08
2017-09-27T05:21:44.020Z,97.27
2017-09-27T05:22:43.993Z,97.27
2017-09-27T05:23:43.979Z,96.98
2017-09-27T05:24:43.957Z,97.18
2017-09-27T05:25:43.933Z,97.18
2017-09-27T05:26:43.904Z,97.18
2017-09-27T05:27:43.892Z,96.8
2017-09-27T05:28:43.862Z,97.18
2017-09-27T05:29:43.839Z,97.18
2017-09-27T05:30:43.821Z,97.18
2017-09-27T05:31:43.800Z,96.89
2017-09-27T05:32:43.773Z,97.27
2017-09-27T05:33:43.764Z,97.47
2017-09-27T05:34:43.422Z,97.56
2017-09-27T05:35:43.707Z,97.27
2017-09-27T05:36:43.687Z,97.27
2017-09-27T05:37:43.664Z,97.08
2017-09-27T05:38:43.637Z,97.47
2017-09-27T05:39:43.629Z,97.27
2017-09-27T05:40:43.599Z,97.18
2017-09-27T05:41:43.572Z,97.27
2017-09-27T05:42:43.551Z,97.27
2017-09-27T05:43:43.534Z,97.27
2017-09-27T05:44:43.510Z,97.27
2017-09-27T05:45:43.490Z,97.56
2017-09-27T05:46:43.458Z,97.47
2017-09-27T05:47:43.440Z,97.27
2017-09-27T05:48:43.417Z,97.27
2017-09-27T05:49:43.405Z,97.27
2017-09-27T05:50:43.370Z,97.56
2017-09-27T05:51:43.350Z,96.98
2017-09-27T05:52:43.344Z,97.56
2017-09-27T05:53:43.307Z,96.98
2017-09-27T05:54:43.290Z,97.47
2017-09-27T05:55:43.257Z,97.47
2017-09-27T05:56:43.235Z,97.37
2017-09-27T05:57:43.216Z,97.66
2017-09-27T05:58:43.197Z,97.47
2017-09-27T05:59:43.167Z,97.47
2017-09-27T06:00:43.150Z,97.56
2017-09-27T06:01:43.126Z,97.37
2017-09-27T06:02:43.103Z,97.47
2017-09-27T06:03:43.111Z,97.37
2017-09-27T06:04:43.055Z,97.18
2017-09-27T06:05:43.044Z,96.98
2017-09-27T06:06:43.014Z,96.98
2017-09-27T06:07:42.990Z,96.98
2017-09-27T06:08:42.969Z,97.08
2017-09-27T06:09:42.950Z,96.98
2017-09-27T06:10:42.930Z,97.08
2017-09-27T06:11:42.901Z,97.27
2017-09-27T06:12:42.876Z,96.98
2017-09-27T06:13:42.857Z,96.8
2017-09-27T06:14:42.834Z,96.8
2017-09-27T06:15:42.823Z,97.18
2017-09-27T06:16:42.793Z,97.08
2017-09-27T06:17:42.785Z,97.08
2017-09-27T06:18:42.747Z,97.08
2017-09-27T06:19:42.724Z,96.98
2017-09-27T06:20:42.702Z,97.18
2017-09-27T06:21:42.673Z,97.08
2017-09-27T06:22:42.652Z,97.08
2017-09-27T06:23:42.632Z,97.37
2017-09-27T06:24:42.610Z,97.27
2017-09-27T06:25:42.590Z,97.08
2017-09-27T06:26:42.578Z,97.08
2017-09-27T06:27:42.546Z,96.89
2017-09-27T06:28:42.528Z,97.27
2017-09-27T06:29:42.496Z,96.89
2017-09-27T06:30:42.482Z,97.27
2017-09-27T06:31:42.457Z,97.18
2017-09-27T06:32:42.432Z,97.27
2017-09-27T06:33:42.410Z,97.08
2017-09-27T06:34:42.386Z,97.47
2017-09-27T06:35:42.367Z,97.47
2017-09-27T06:36:42.343Z,97.18
2017-09-27T06:37:42.403Z,97.47
2017-09-27T06:38:42.302Z,97.27
2017-09-27T06:39:42.389Z,96.89
2017-09-27T06:40:42.255Z,97.08
2017-09-27T06:41:42.270Z,96.94
2017-09-27T06:42:42.216Z,96.98
2017-09-27T06:43:42.191Z,96.98
2017-09-27T06:44:42.166Z,97.08
2017-09-27T06:45:42.148Z,97.03
2017-09-27T06:46:42.127Z,97.32
2017-09-27T06:47:42.096Z,96.56
2017-09-27T06:48:42.078Z,96.75
2017-09-27T06:49:41.743Z,96.75
2017-09-27T06:50:42.035Z,96.22
2017-09-27T06:51:42.003Z,96.46
2017-09-27T06:52:41.989Z,96.84
2017-09-27T06:53:41.968Z,96.27
2017-09-27T06:54:41.944Z,96.08
2017-09-27T06:55:41.917Z,96.27
2017-09-27T06:56:41.902Z,96.37
2017-09-27T06:57:41.879Z,96.27
2017-09-27T06:58:41.854Z,96.46
2017-09-27T06:59:41.838Z,96.56
2017-09-27T07:00:41.498Z,96.56
2017-09-27T07:01:41.787Z,96.84
2017-09-27T07:02:41.764Z,96.56
2017-09-27T07:03:41.736Z,96.56
2017-09-27T07:04:41.724Z,96.66
2017-09-27T07:05:41.699Z,96.66
2017-09-27T07:06:41.669Z,96.27
2017-09-27T07:07:41.652Z,96.46
2017-09-27T07:08:41.632Z,96.46
2017-09-27T07:09:41.613Z,96.37
2017-09-27T07:10:41.600Z,96.37
2017-09-27T07:11:41.564Z,96.56
2017-09-27T07:12:41.542Z,96.56
2017-09-27T07:13:41.520Z,96.37
2017-09-27T07:14:41.497Z,96.84
2017-09-27T07:15:41.479Z,96.75
2017-09-27T07:16:41.150Z,96.75
2017-09-27T07:17:41.435Z,96.27
2017-09-27T07:18:41.421Z,96.37
2017-09-27T07:19:41.395Z,95.89
2017-09-27T07:20:41.371Z,95.89
2017-09-27T07:21:41.345Z,95.98
2017-09-27T07:22:41.322Z,95.89
2017-09-27T07:23:41.309Z,95.98
2017-09-27T07:24:41.285Z,96.17
2017-09-27T07:25:41.262Z,96.17
2017-09-27T07:26:41.235Z,96.37
2017-09-27T07:27:41.212Z,95.89
2017-09-27T07:28:41.189Z,95.89
2017-09-27T07:29:41.168Z,95.98
2017-09-27T07:30:41.147Z,96.08
2017-09-27T07:31:41.118Z,96.08
2017-09-27T07:32:41.106Z,96.17
2017-09-27T07:33:41.080Z,95.98
2017-09-27T07:34:41.069Z,96.17
2017-09-27T07:35:41.032Z,96.08
2017-09-27T07:36:40.722Z,96.08
2017-09-27T07:37:40.991Z,95.89
2017-09-27T07:38:40.660Z,95.7
2017-09-27T07:39:40.944Z,95.51
2017-09-27T07:40:40.620Z,95.51
2017-09-27T07:41:40.900Z,95.84
2017-09-27T07:42:40.888Z,95.75
2017-09-27T07:43:40.858Z,95.84
2017-09-27T07:44:40.527Z,95.61
2017-09-27T07:45:40.811Z,95.89
2017-09-27T07:46:40.786Z,95.84
2017-09-27T07:47:40.767Z,95.84
2017-09-27T07:48:40.755Z,95.94
2017-09-27T07:49:40.725Z,95.89
2017-09-27T07:50:40.699Z,96.03
2017-09-27T07:51:40.681Z,95.94
2017-09-27T07:52:40.659Z,96.03
2017-09-27T07:53:40.641Z,95.84
2017-09-27T07:54:40.622Z,95.94
2017-09-27T07:55:40.591Z,95.94
2017-09-27T07:56:40.578Z,95.75
2017-09-27T07:57:40.582Z,95.65
2017-09-27T07:58:40.525Z,95.75
2017-09-27T07:59:40.507Z,96.03
2017-09-27T08:00:40.483Z,95.46
2017-09-27T08:01:40.458Z,95.17
2017-09-27T08:02:40.437Z,95.36
2017-09-27T08:03:40.423Z,95.17
2017-09-27T08:04:40.393Z,94.98
2017-09-27T08:05:40.063Z,95.17
2017-09-27T08:06:40.350Z,95.17
2017-09-27T08:07:40.329Z,94.98
2017-09-27T08:08:40.310Z,95.46
2017-09-27T08:09:40.285Z,95.46
2017-09-27T08:10:40.265Z,95.36
2017-09-27T08:11:39.932Z,95.36
2017-09-27T08:12:40.221Z,95.27
2017-09-27T08:13:40.197Z,95.46
2017-09-27T08:14:40.179Z,95.65
2017-09-27T08:15:40.151Z,95.56
2017-09-27T08:16:40.130Z,95.27
2017-09-27T08:17:40.113Z,94.89
2017-09-27T08:18:40.086Z,95.36
2017-09-27T08:19:40.068Z,95.36
2017-09-27T08:20:40.051Z,95.46
2017-09-27T08:21:40.025Z,95.03
2017-09-27T08:22:39.999Z,94.98
2017-09-27T08:23:39.988Z,95.03
2017-09-27T08:24:39.658Z,95.32
2017-09-27T08:25:39.948Z,95.12
2017-09-27T08:26:39.912Z,95.51
2017-09-27T08:27:39.895Z,95.41
2017-09-27T08:28:39.869Z,95.51
2017-09-27T08:29:39.852Z,95.41
2017-09-27T08:30:39.836Z,95.03
2017-09-27T08:31:39.808Z,94.55
2017-09-27T08:32:39.986Z,95.03
2017-09-27T08:33:39.461Z,95.41
2017-09-27T08:34:39.755Z,94.74
2017-09-27T08:35:39.727Z,94.65
2017-09-27T08:36:39.698Z,95.41
2017-09-27T08:37:39.687Z,95.41
2017-09-27T08:38:39.716Z,95.22
2017-09-27T08:39:39.637Z,94.89
2017-09-27T08:40:39.314Z,95.07
2017-09-27T08:41:39.604Z,95.07
2017-09-27T08:42:39.625Z,94.7
2017-09-27T08:43:39.556Z,94.89
2017-09-27T08:44:39.534Z,94.7
2017-09-27T08:45:39.521Z,95.07
2017-09-27T08:46:39.490Z,94.79
2017-09-27T08:47:39.462Z,94.7
2017-09-27T08:48:39.441Z,94.98
2017-09-27T08:49:39.428Z,94.41
2017-09-27T08:50:39.411Z,94.65
2017-09-27T08:51:39.377Z,94.74
2017-09-27T08:52:39.363Z,94.84
2017-09-27T08:53:39.339Z,94.74
2017-09-27T08:54:39.314Z,94.45
2017-09-27T08:55:39.299Z,94.12
2017-09-27T08:56:39.284Z,94.6
2017-09-27T08:57:39.262Z,94.31
2017-09-27T08:58:39.243Z,94.21
2017-09-27T08:59:39.208Z,93.78
2017-09-27T09:00:39.194Z,94.26
2017-09-27T09:01:39.173Z,93.69
2017-09-27T09:02:39.151Z,94.31
2017-09-27T09:03:39.129Z,94.35
2017-09-27T09:04:39.116Z,93.97
2017-09-27T09:05:39.088Z,93.73
2017-09-27T09:06:39.068Z,93.54
2017-09-27T09:07:39.056Z,93.59
2017-09-27T09:08:39.045Z,93.05
2017-09-27T09:09:39.028Z,92.43
2017-09-27T09:10:38.996Z,92.86
2017-09-27T09:11:38.981Z,92.19
2017-09-27T09:12:38.948Z,92.19
2017-09-27T09:13:38.949Z,91.71
2017-09-27T09:14:38.944Z,92.19
2017-09-27T09:15:38.907Z,91.52
2017-09-27T09:16:38.883Z,91.61
2017-09-27T09:17:38.866Z,91.36
2017-09-27T09:18:38.850Z,90.31
2017-09-27T09:19:38.831Z,89.97
2017-09-27T09:20:38.504Z,89.53
2017-09-27T09:21:38.804Z,89.34
2017-09-27T09:22:38.782Z,88.42
2017-09-27T09:23:38.458Z,88.32
2017-09-27T09:24:38.442Z,87.84
2017-09-27T09:25:38.727Z,87.74
2017-09-27T09:26:38.713Z,87.79
2017-09-27T09:27:38.697Z,87.02
2017-09-27T09:28:38.690Z,86.63
2017-09-27T09:29:38.671Z,85.52
2017-09-27T09:30:38.647Z,85.56
2017-09-27T09:31:38.630Z,85.56
2017-09-27T09:32:38.614Z,84.93
2017-09-27T09:33:38.600Z,84.44
2017-09-27T09:34:38.589Z,83.72
2017-09-27T09:35:38.573Z,83.91
2017-09-27T09:36:38.549Z,82.89
2017-09-27T09:37:38.537Z,82.54
2017-09-27T09:38:38.522Z,80.51
2017-09-27T09:39:38.501Z,78.03
2017-09-27T09:40:38.498Z,78.29
2017-09-27T09:41:38.477Z,76.74
2017-09-27T09:42:38.468Z,77.13
2017-09-27T09:43:38.454Z,76.16
2017-09-27T09:44:38.439Z,76.26
2017-09-27T09:45:38.423Z,75.43
2017-09-27T09:46:38.414Z,75.13
2017-09-27T09:47:38.395Z,75.1
2017-09-27T09:48:38.380Z,74.9
2017-09-27T09:49:38.366Z,75.93
2017-09-27T09:50:38.047Z,77.21
2017-09-27T09:51:38.342Z,77.88
2017-09-27T09:52:38.321Z,79.19
2017-09-27T09:53:38.306Z,79.74
2017-09-27T09:54:38.296Z,80.51
2017-09-27T09:55:38.288Z,81.14
2017-09-27T09:56:37.956Z,80.94
2017-09-27T09:57:38.265Z,81.43
2017-09-27T09:58:38.236Z,81.33
2017-09-27T09:59:37.910Z,81.96
2017-09-27T10:00:38.197Z,82.45
2017-09-27T10:01:38.187Z,82.54
2017-09-27T10:02:38.168Z,83.03
2017-09-27T10:03:38.150Z,82.7
2017-09-27T10:04:38.132Z,82.98
2017-09-27T10:05:38.122Z,83.08
2017-09-27T10:06:38.100Z,83.18
2017-09-27T10:07:38.087Z,83.95
2017-09-27T10:08:38.075Z,84
2017-09-27T10:09:38.046Z,83.62
2017-09-27T10:10:37.728Z,83.91
2017-09-27T10:11:38.038Z,84
2017-09-27T10:12:38.006Z,84
2017-09-27T10:13:37.982Z,84.48
2017-09-27T10:14:37.974Z,84.48
2017-09-27T10:15:37.943Z,84.67
2017-09-27T10:16:37.930Z,84.48
2017-09-27T10:17:37.910Z,84.58
2017-09-27T10:18:37.894Z,84.67
2017-09-27T10:19:37.870Z,84.97
2017-09-27T10:20:37.862Z,84.39
2017-09-27T10:21:37.843Z,84.44
2017-09-27T10:22:37.823Z,84.44
2017-09-27T10:23:37.802Z,85.21
2017-09-27T10:24:37.788Z,84.83
2017-09-27T10:25:37.778Z,84.83
2017-09-27T10:26:37.750Z,85.31
2017-09-27T10:27:37.728Z,85.27
2017-09-27T10:28:37.408Z,85.36
2017-09-27T10:29:37.694Z,85.84
2017-09-27T10:30:37.673Z,85.75
2017-09-27T10:31:37.656Z,85.65
2017-09-27T10:32:37.645Z,86.22
2017-09-27T10:33:37.623Z,86.22
2017-09-27T10:34:37.597Z,86.42
2017-09-27T10:35:37.582Z,86.42
2017-09-27T10:36:37.557Z,86.8
2017-09-27T10:37:37.546Z,86.61
2017-09-27T10:38:37.523Z,86.99
2017-09-27T10:39:37.506Z,86.99
2017-09-27T10:40:37.489Z,86.95
2017-09-27T10:41:37.474Z,87.34
2017-09-27T10:42:37.451Z,86.85
2017-09-27T10:43:37.426Z,87.53
2017-09-27T10:44:37.411Z,87.15
2017-09-27T10:45:37.395Z,87.15
2017-09-27T10:46:37.382Z,87.24
2017-09-27T10:47:37.355Z,87.05
2017-09-27T10:48:37.335Z,87.86
2017-09-27T10:49:37.313Z,87.19
2017-09-27T10:50:37.295Z,87.19
2017-09-27T10:51:37.277Z,86.9
2017-09-27T10:52:37.264Z,86.9
2017-09-27T10:53:36.930Z,86.9
2017-09-27T10:54:37.217Z,87.19
2017-09-27T10:55:37.195Z,87.09
2017-09-27T10:56:37.180Z,87.09
2017-09-27T10:57:37.162Z,87.19
2017-09-27T10:58:37.139Z,87.38
2017-09-27T10:59:37.128Z,87.57
2017-09-27T11:00:37.109Z,87.09
2017-09-27T11:01:37.086Z,87.29
2017-09-27T11:02:37.093Z,87.09
2017-09-27T11:03:37.070Z,86.99
2017-09-27T11:04:37.037Z,87.19
2017-09-27T11:05:37.015Z,87.09
2017-09-27T11:06:36.985Z,87.19
2017-09-27T11:07:36.968Z,87.96
2017-09-27T11:08:36.950Z,88.15
2017-09-27T11:09:36.932Z,88.15
2017-09-27T11:10:36.910Z,87.09
2017-09-27T11:11:36.931Z,87.19
2017-09-27T11:12:36.874Z,87.19
2017-09-27T11:13:36.859Z,87.38
2017-09-27T11:14:36.832Z,88.15
2017-09-27T11:15:36.819Z,87.86
2017-09-27T11:16:36.795Z,87.76
2017-09-27T11:17:36.803Z,87.86
2017-09-27T11:18:36.749Z,87.96
2017-09-27T11:19:36.738Z,88.06
2017-09-27T11:20:36.718Z,87.86
2017-09-27T11:21:36.695Z,87.76
2017-09-27T11:22:36.677Z,88.15
2017-09-27T11:23:36.663Z,88.15
2017-09-27T11:24:36.640Z,87.76
2017-09-27T11:25:36.695Z,87.96
2017-09-27T11:26:36.599Z,87.29
2017-09-27T11:27:36.604Z,87.96
2017-09-27T11:28:36.560Z,86.9
2017-09-27T11:29:36.555Z,87.09
2017-09-27T11:30:36.579Z,87.48
2017-09-27T11:31:36.505Z,86.99
2017-09-27T11:32:36.484Z,87.76
2017-09-27T11:33:36.465Z,86.99
2017-09-27T11:34:36.437Z,87.09
2017-09-27T11:35:36.122Z,87.09
2017-09-27T11:36:36.418Z,87.09
2017-09-27T11:37:36.390Z,87.09
2017-09-27T11:38:36.367Z,87.19
2017-09-27T11:39:36.359Z,87.09
2017-09-27T11:40:36.321Z,86.9
2017-09-27T11:41:36.323Z,87.09
2017-09-27T11:42:36.295Z,87.38
2017-09-27T11:43:36.261Z,87.48
2017-09-27T11:44:36.244Z,86.9
2017-09-27T11:45:36.228Z,87.29
2017-09-27T11:46:36.249Z,86.9
2017-09-27T11:47:35.886Z,87.29
2017-09-27T11:48:36.169Z,87.09
2017-09-27T11:49:36.147Z,86.99
2017-09-27T11:50:36.136Z,87.09
2017-09-27T11:51:36.159Z,87.09
2017-09-27T11:52:36.092Z,86.99
2017-09-27T11:53:36.076Z,87.29
2017-09-27T11:54:35.754Z,86.9
2017-09-27T11:55:36.045Z,86.75
2017-09-27T11:56:36.011Z,86.94
2017-09-27T11:57:35.990Z,87.13
2017-09-27T11:58:35.976Z,87.04
2017-09-27T11:59:35.956Z,86.85
2017-09-27T12:00:35.926Z,86.94
2017-09-27T12:01:35.917Z,86.94
2017-09-27T12:02:35.896Z,86.75
2017-09-27T12:03:35.894Z,86.94
2017-09-27T12:04:35.868Z,86.65
2017-09-27T12:05:35.848Z,87.13
2017-09-27T12:06:35.816Z,86.75
2017-09-27T12:07:35.793Z,86.85
2017-09-27T12:08:35.770Z,87.23
2017-09-27T12:09:35.751Z,86.94
2017-09-27T12:10:35.770Z,86.85
2017-09-27T12:11:35.712Z,87.23
2017-09-27T12:12:35.693Z,87.23
2017-09-27T12:13:35.672Z,86.85
2017-09-27T12:14:35.652Z,87.13
2017-09-27T12:15:35.637Z,87.04
2017-09-27T12:16:35.614Z,86.75
2017-09-27T12:17:35.602Z,86.65
2017-09-27T12:18:35.268Z,86.65
2017-09-27T12:19:35.557Z,86.46
2017-09-27T12:20:35.557Z,86.75
2017-09-27T12:21:35.520Z,86.36
2017-09-27T12:22:35.505Z,86.46
2017-09-27T12:23:35.478Z,86.36
2017-09-27T12:24:35.505Z,86.36
2017-09-27T12:25:35.438Z,86.46
2017-09-27T12:26:35.423Z,86.18
2017-09-27T12:27:35.407Z,86.46
2017-09-27T12:28:35.380Z,86.56
2017-09-27T12:29:35.368Z,86.08
2017-09-27T12:30:35.347Z,86.27
2017-09-27T12:31:35.320Z,86.18
2017-09-27T12:32:35.308Z,85.88
2017-09-27T12:33:35.282Z,85.78
2017-09-27T12:34:35.268Z,85.5
2017-09-27T12:35:35.246Z,85.4
2017-09-27T12:36:35.226Z,85.5
2017-09-27T12:37:35.205Z,85.31
2017-09-27T12:38:35.182Z,85.6
2017-09-27T12:39:35.169Z,85.69
2017-09-27T12:40:35.151Z,85.5
2017-09-27T12:41:35.132Z,85.4
2017-09-27T12:42:34.798Z,85.69
2017-09-27T12:43:35.089Z,85.78
2017-09-27T12:44:34.772Z,85.6
2017-09-27T12:45:35.040Z,85.5
2017-09-27T12:46:35.084Z,85.6
2017-09-27T12:47:35.018Z,85.69
2017-09-27T12:48:34.990Z,85.4
2017-09-27T12:49:34.965Z,85.4
2017-09-27T12:50:34.956Z,85.98
2017-09-27T12:51:34.974Z,85.6
2017-09-27T12:52:34.907Z,85.6
2017-09-27T12:53:34.892Z,85.69
2017-09-27T12:54:34.875Z,85.4